Time,TemperatureF,DewpointF,PressureIn,WindDirection,WindDirectionDegrees,WindSpeedMPH,WindSpeedGustMPH,Humidity,HourlyPrecipIn,Conditions,Clouds,dailyrainin,SolarRadiationWatts/m^2,SoftwareType,DateUTC
2013-07-19 00:02:00,74.0,72.0,-100.00,East,94,1.0,3.0,94,0.00,,,0.00,0.000000,,2013-07-19 04:02:00,
2013-07-19 00:12:00,74.0,72.0,-100.00,East,94,1.0,3.0,94,0.00,,,0.00,0.000000,,2013-07-19 04:12:00,
2013-07-19 00:44:00,73.0,72.0,-100.00,East,101,1.0,2.0,96,0.00,,,0.00,0.000000,,2013-07-19 04:44:00,
2013-07-19 00:52:00,73.0,72.0,-100.00,East,101,1.0,2.0,96,0.00,,,0.00,0.000000,,2013-07-19 04:52:00,
2013-07-19 01:02:00,73.0,72.0,-100.00,East,101,1.0,2.0,96,0.00,,,0.00,0.000000,,2013-07-19 05:02:00,
2013-07-19 01:11:00,73.0,72.0,-100.00,East,101,1.0,2.0,96,0.00,,,0.00,0.000000,,2013-07-19 05:11:00,
2013-07-19 01:43:00,72.0,71.0,-100.00,East,94,1.0,4.0,97,0.00,,,-99.99,0.000000,,2013-07-19 05:43:00,
2013-07-19 01:53:00,72.0,71.0,-100.00,East,94,1.0,4.0,97,0.00,,,-99.99,0.000000,,2013-07-19 05:53:00,
2013-07-19 02:01:00,72.0,71.0,-100.00,East,94,1.0,4.0,97,0.00,,,-99.99,0.000000,,2013-07-19 06:01:00,
2013-07-19 02:11:00,72.0,71.0,-100.00,East,94,1.0,4.0,97,0.00,,,-99.99,0.000000,,2013-07-19 06:11:00,
2013-07-19 02:43:00,71.0,70.0,-100.00,East,95,1.0,2.0,97,0.00,,,0.00,0.000000,,2013-07-19 06:43:00,
2013-07-19 02:53:00,71.0,70.0,-100.00,East,95,1.0,2.0,97,0.00,,,0.00,0.000000,,2013-07-19 06:53:00,
2013-07-19 03:01:00,71.0,70.0,-100.00,East,95,1.0,2.0,97,0.00,,,0.00,0.000000,,2013-07-19 07:01:00,
2013-07-19 03:12:00,71.0,70.0,-100.00,East,95,1.0,2.0,97,0.00,,,0.00,0.000000,,2013-07-19 07:12:00,
2013-07-19 03:43:00,71.0,70.0,-100.00,East,98,2.0,3.0,97,0.00,,,-99.99,0.000000,,2013-07-19 07:43:00,
2013-07-19 03:53:00,71.0,70.0,-100.00,East,98,2.0,3.0,97,0.00,,,-99.99,0.000000,,2013-07-19 07:53:00,
2013-07-19 04:01:00,71.0,70.0,-100.00,East,98,2.0,3.0,97,0.00,,,-99.99,0.000000,,2013-07-19 08:01:00,
2013-07-19 04:12:00,71.0,70.0,-100.00,East,98,2.0,3.0,97,0.00,,,-99.99,0.000000,,2013-07-19 08:12:00,
2013-07-19 04:43:00,70.0,69.0,-100.00,East,95,2.0,3.0,97,0.00,,,-99.99,0.000000,,2013-07-19 08:43:00,
2013-07-19 04:52:00,70.0,69.0,-100.00,East,95,2.0,3.0,97,0.00,,,-99.99,0.000000,,2013-07-19 08:52:00,
2013-07-19 05:02:00,70.0,69.0,-100.00,East,95,2.0,3.0,97,0.00,,,-99.99,0.000000,,2013-07-19 09:02:00,
2013-07-19 05:11:00,70.0,69.0,-100.00,East,95,2.0,3.0,97,0.00,,,-99.99,0.000000,,2013-07-19 09:11:00,
2013-07-19 05:43:00,71.0,70.0,-100.00,NE,40,1.0,3.0,97,0.00,,,0.00,0.000000,,2013-07-19 09:43:00,
2013-07-19 05:52:00,71.0,70.0,-100.00,NE,40,1.0,3.0,97,0.00,,,0.00,0.000000,,2013-07-19 09:52:00,
2013-07-19 06:01:00,71.0,70.0,-100.00,NE,40,1.0,3.0,97,0.00,,,0.00,0.000000,,2013-07-19 10:01:00,
2013-07-19 06:11:00,71.0,70.0,-100.00,NE,40,1.0,3.0,97,0.00,,,0.00,0.000000,,2013-07-19 10:11:00,
2013-07-19 06:43:00,71.0,70.0,-100.00,NW,314,1.0,2.0,97,0.00,,,0.00,0.000000,,2013-07-19 10:43:00,
2013-07-19 06:52:00,71.0,70.0,-100.00,NW,314,1.0,2.0,97,0.00,,,0.00,0.000000,,2013-07-19 10:52:00,
2013-07-19 07:02:00,71.0,70.0,-100.00,NW,314,1.0,2.0,97,0.00,,,0.00,0.000000,,2013-07-19 11:02:00,
2013-07-19 07:12:00,71.0,70.0,-100.00,NW,314,1.0,2.0,97,0.00,,,0.00,0.000000,,2013-07-19 11:12:00,
2013-07-19 07:43:00,72.0,71.0,-100.00,West,264,2.0,4.0,97,0.00,,,0.00,24.000000,,2013-07-19 11:43:00,
2013-07-19 07:52:00,72.0,71.0,-100.00,West,264,2.0,4.0,97,0.00,,,0.00,24.000000,,2013-07-19 11:52:00,
2013-07-19 08:01:00,72.0,71.0,-100.00,West,264,2.0,4.0,97,0.00,,,0.00,24.000000,,2013-07-19 12:01:00,
2013-07-19 08:12:00,72.0,71.0,-100.00,West,264,2.0,4.0,97,0.00,,,0.00,24.000000,,2013-07-19 12:12:00,
2013-07-19 08:44:00,76.0,73.0,-100.00,West,268,2.0,4.0,90,0.00,,,0.00,168.000000,,2013-07-19 12:44:00,
2013-07-19 08:53:00,76.0,73.0,-100.00,West,268,2.0,4.0,90,0.00,,,0.00,168.000000,,2013-07-19 12:53:00,
2013-07-19 09:02:00,76.0,73.0,-100.00,West,268,2.0,4.0,90,0.00,,,0.00,168.000000,,2013-07-19 13:02:00,
2013-07-19 09:12:00,76.0,73.0,-100.00,West,268,2.0,4.0,90,0.00,,,0.00,168.000000,,2013-07-19 13:12:00,
2013-07-19 09:43:00,81.0,73.0,-100.00,West,265,3.0,4.0,78,0.00,,,0.00,334.000000,,2013-07-19 13:43:00,
2013-07-19 09:53:00,81.0,73.0,-100.00,West,265,3.0,4.0,78,0.00,,,0.00,334.000000,,2013-07-19 13:53:00,
2013-07-19 10:02:00,81.0,73.0,-100.00,West,265,3.0,4.0,78,0.00,,,0.00,334.000000,,2013-07-19 14:02:00,
2013-07-19 10:12:00,81.0,73.0,-100.00,West,265,3.0,4.0,78,0.00,,,0.00,334.000000,,2013-07-19 14:12:00,
2013-07-19 10:43:00,84.0,73.0,-100.00,West,262,5.0,9.0,69,0.00,,,0.00,451.000000,,2013-07-19 14:43:00,
2013-07-19 10:53:00,84.0,73.0,-100.00,West,262,5.0,9.0,69,0.00,,,0.00,451.000000,,2013-07-19 14:53:00,
2013-07-19 11:02:00,84.0,73.0,-100.00,West,262,5.0,9.0,69,0.00,,,0.00,451.000000,,2013-07-19 15:02:00,
2013-07-19 11:11:00,84.0,73.0,-100.00,West,262,5.0,9.0,69,0.00,,,0.00,451.000000,,2013-07-19 15:11:00,
2013-07-19 11:43:00,85.0,73.0,-100.00,West,263,6.0,10.0,68,0.00,,,0.00,546.000000,,2013-07-19 15:43:00,
2013-07-19 11:52:00,85.0,73.0,-100.00,West,263,6.0,10.0,68,0.00,,,0.00,546.000000,,2013-07-19 15:52:00,
2013-07-19 12:01:00,85.0,73.0,-100.00,West,263,6.0,10.0,68,0.00,,,0.00,546.000000,,2013-07-19 16:01:00,
2013-07-19 12:11:00,85.0,73.0,-100.00,West,263,6.0,10.0,68,0.00,,,0.00,546.000000,,2013-07-19 16:11:00,
2013-07-19 12:53:00,88.0,75.0,-100.00,WSW,257,5.0,9.0,66,0.00,,,0.00,629.000000,,2013-07-19 16:53:00,
2013-07-19 13:02:00,88.0,75.0,-100.00,WSW,257,5.0,9.0,66,0.00,,,0.00,629.000000,,2013-07-19 17:02:00,
2013-07-19 13:12:00,88.0,75.0,-100.00,WSW,257,5.0,9.0,66,0.00,,,0.00,629.000000,,2013-07-19 17:12:00,
2013-07-19 13:43:00,89.0,72.0,-100.00,WSW,247,6.0,13.0,57,0.00,,,0.00,782.000000,,2013-07-19 17:43:00,
2013-07-19 13:52:00,89.0,72.0,-100.00,WSW,247,6.0,13.0,57,0.00,,,0.00,782.000000,,2013-07-19 17:52:00,
2013-07-19 14:01:00,89.0,72.0,-100.00,WSW,247,6.0,13.0,57,0.00,,,0.00,782.000000,,2013-07-19 18:01:00,
2013-07-19 14:11:00,89.0,72.0,-100.00,WSW,247,6.0,13.0,57,0.00,,,0.00,782.000000,,2013-07-19 18:11:00,
2013-07-19 15:52:00,73.0,68.0,-100.00,East,84,3.0,14.0,85,0.00,,,0.05,18.000000,,2013-07-19 19:52:00,
2013-07-19 16:01:00,73.0,68.0,-100.00,East,84,3.0,14.0,85,0.00,,,0.05,18.000000,,2013-07-19 20:01:00,
2013-07-19 16:11:00,73.0,68.0,-100.00,East,84,3.0,14.0,85,0.00,,,0.05,18.000000,,2013-07-19 20:11:00,
2013-07-19 16:43:00,74.0,71.0,-100.00,ENE,76,3.0,6.0,89,0.01,,,0.06,46.000000,,2013-07-19 20:43:00,
2013-07-19 16:52:00,74.0,71.0,-100.00,ENE,76,3.0,6.0,89,0.01,,,0.06,46.000000,,2013-07-19 20:52:00,
2013-07-19 17:01:00,74.0,71.0,-100.00,ENE,76,3.0,6.0,89,0.01,,,0.06,46.000000,,2013-07-19 21:01:00,
2013-07-19 17:11:00,74.0,71.0,-100.00,ENE,76,3.0,6.0,89,0.01,,,0.06,46.000000,,2013-07-19 21:11:00,
2013-07-19 17:43:00,75.0,72.0,-100.00,East,94,3.0,7.0,89,0.00,,,0.06,97.000000,,2013-07-19 21:43:00,
2013-07-19 17:52:00,75.0,72.0,-100.00,East,94,3.0,7.0,89,0.00,,,0.06,97.000000,,2013-07-19 21:52:00,
2013-07-19 18:01:00,75.0,72.0,-100.00,East,94,3.0,7.0,89,0.00,,,0.06,97.000000,,2013-07-19 22:01:00,
2013-07-19 18:11:00,75.0,72.0,-100.00,East,94,3.0,7.0,89,0.00,,,0.06,97.000000,,2013-07-19 22:11:00,
2013-07-19 18:43:00,76.0,72.0,-100.00,East,94,1.0,6.0,88,0.00,,,0.06,69.000000,,2013-07-19 22:43:00,
2013-07-19 18:52:00,76.0,72.0,-100.00,East,94,1.0,6.0,88,0.00,,,0.06,69.000000,,2013-07-19 22:52:00,
2013-07-19 19:01:00,76.0,72.0,-100.00,East,94,1.0,6.0,88,0.00,,,0.06,69.000000,,2013-07-19 23:01:00,
2013-07-19 19:11:00,76.0,72.0,-100.00,East,94,1.0,6.0,88,0.00,,,0.06,69.000000,,2013-07-19 23:11:00,
2013-07-19 19:43:00,76.0,73.0,-100.00,East,89,3.0,6.0,91,0.00,,,0.06,64.000000,,2013-07-19 23:43:00,
2013-07-19 19:52:00,76.0,73.0,-100.00,East,89,3.0,6.0,91,0.00,,,0.06,64.000000,,2013-07-19 23:52:00,
2013-07-19 20:01:00,76.0,73.0,-100.00,East,89,3.0,6.0,91,0.00,,,0.06,64.000000,,2013-07-20 00:01:00,
2013-07-19 20:11:00,76.0,73.0,-100.00,East,89,3.0,6.0,91,0.00,,,0.06,64.000000,,2013-07-20 00:11:00,
2013-07-19 20:43:00,75.0,73.0,-100.00,West,272,3.0,5.0,92,0.00,,,-99.99,35.000000,,2013-07-20 00:43:00,
2013-07-19 20:52:00,75.0,73.0,-100.00,West,272,3.0,5.0,92,0.00,,,-99.99,35.000000,,2013-07-20 00:52:00,
2013-07-19 21:01:00,75.0,73.0,-100.00,West,272,3.0,5.0,92,0.00,,,-99.99,35.000000,,2013-07-20 01:01:00,
2013-07-19 21:11:00,75.0,73.0,-100.00,West,272,3.0,5.0,92,0.00,,,-99.99,35.000000,,2013-07-20 01:11:00,
2013-07-19 21:52:00,75.0,73.0,-100.00,WSW,253,8.0,14.0,95,0.00,,,0.06,4.000000,,2013-07-20 01:52:00,
2013-07-19 22:02:00,75.0,73.0,-100.00,WSW,253,8.0,14.0,95,0.00,,,0.06,4.000000,,2013-07-20 02:02:00,
2013-07-19 22:11:00,75.0,73.0,-100.00,WSW,253,8.0,14.0,95,0.00,,,0.06,4.000000,,2013-07-20 02:11:00,
2013-07-19 22:44:00,70.0,65.0,-100.00,West,267,4.0,17.0,84,0.01,,,0.07,0.000000,,2013-07-20 02:44:00,
2013-07-19 22:52:00,70.0,65.0,-100.00,West,267,4.0,17.0,84,0.01,,,0.07,0.000000,,2013-07-20 02:52:00,
2013-07-19 23:02:00,70.0,65.0,-100.00,West,267,4.0,17.0,84,0.01,,,0.07,0.000000,,2013-07-20 03:02:00,
2013-07-19 23:12:00,70.0,65.0,-100.00,West,267,4.0,17.0,84,0.01,,,0.07,0.000000,,2013-07-20 03:12:00,
2013-07-19 23:44:00,69.0,66.0,-100.00,ESE,114,2.0,8.0,91,0.00,,,0.07,0.000000,,2013-07-20 03:44:00,
2013-07-19 23:53:00,69.0,66.0,-100.00,ESE,114,2.0,8.0,91,0.00,,,0.07,0.000000,,2013-07-20 03:53:00,